ADDS METAR Data INFO
IDs: Format: Raw Decoded Include TAF

Data at: 1153 UTC 25 Jun 2018

KW43 251135Z AUTO 20005KT 7SM CLR A3006 RMK AO2
KW43 251115Z AUTO 26003KT 4SM HZ CLR A3005 RMK AO2
KW43 251055Z AUTO 00000KT 7SM CLR A3005 RMK AO2
KW43 251035Z AUTO 22003KT 1 1/4SM BR VV007 A3005 RMK AO2
KW43 251015Z AUTO 25003KT 3SM BR CLR A3005 RMK AO2
KW43 250955Z AUTO 19005KT 5SM HZ CLR A3006 RMK AO2
KW43 250935Z AUTO 22005KT 5SM HZ CLR A3005 RMK AO2
KW43 250915Z AUTO 20006KT 7SM CLR A3005 RMK AO2
KW43 250855Z AUTO 21005KT 2 1/2SM BR CLR 11/10 A3006 RMK AO2
KW43 250835Z AUTO 17003KT 4SM BR SCT001 11/10 A3007 RMK AO2
KW43 250815Z AUTO 27003KT M1/4SM FG BKN001 11/10 A3007 RMK AO2
KW43 250755Z AUTO 20004KT 10SM CLR 11/10 A3008 RMK AO2
KW43 250735Z AUTO 00000KT 10SM CLR 11/10 A3008 RMK AO2
KW43 250715Z AUTO 00000KT 10SM CLR 11/10 A3008 RMK AO2
KW43 250655Z AUTO 18005KT 10SM CLR 11/10 A3008 RMK AO2
KW43 250635Z AUTO 18006KT 10SM CLR 12/11 A3008 RMK AO2
KW43 250615Z AUTO 18006KT 10SM CLR 12/11 A3009 RMK AO2
KW43 250555Z AUTO 18005KT 10SM CLR 12/11 A3009 RMK AO2
KW43 250535Z AUTO 18005KT 10SM SCT085 12/11 A3009 RMK AO2
KW43 250515Z AUTO 17004KT 10SM SCT095 BKN120 12/12 A3009 RMK AO2
KW43 250455Z AUTO 20004KT 10SM BKN120 13/12 A3009 RMK AO2
KW43 250435Z AUTO 17004KT 10SM BKN110 13/12 A3009 RMK AO2
KW43 250415Z AUTO 00000KT 10SM SCT100 13/12 A3009 RMK AO2
KW43 250355Z AUTO 17004KT 10SM SCT100 SCT120 13/12 A3010 RMK AO2 P0001
KW43 250335Z AUTO 21005KT 10SM BKN110 14/12 A3010 RMK AO2
KW43 250315Z AUTO 22003KT 10SM SCT070 SCT080 SCT120 15/12 A3009 RMK AO2
KW43 250255Z AUTO 00000KT 10SM SCT110 15/12 A3008 RMK AO2 P0001
KW43 250235Z AUTO 25003KT 10SM CLR 15/13 A3008 RMK AO2
KW43 250215Z AUTO 00000KT 10SM CLR 16/12 A3008 RMK AO2
KW43 250155Z AUTO 25003KT 10SM SCT110 16/13 A3008 RMK AO2 P0002
KW43 250135Z AUTO 25004KT 10SM BKN110 16/13 A3008 RMK AO2 P0001
KW43 250115Z AUTO 23003KT 10SM BKN100 16/13 A3008 RMK AO2 P0001
KW43 250055Z AUTO 00000KT 10SM CLR 16/13 A3008 RMK AO2 P0001
KW43 250035Z AUTO 33003KT 10SM SCT075 SCT090 15/13 A3008 RMK AO2 P0001
KW43 250015Z AUTO 00000KT 10SM SCT030 SCT060 OVC080 15/14 A3008 RMK AO2
KW43 242355Z AUTO 34005KT 10SM -RA SCT012 BKN080 OVC090 15/14 A3008 RMK AO2 P0002
KW43 242335Z AUTO 36004KT 7SM -RA SCT012 BKN018 OVC075 15/14 A3008 RMK AO2 P0001 LTG DSNT NW
KW43 242315Z AUTO 28004KT 7SM +RA SCT017 BKN027 OVC046 16/13 A3007 RMK AO2 P0001 LTG DSNT E AND SE
KW43 242255Z AUTO 24007KT 10SM VCTS SCT032 SCT041 SCT047 17/13 A3007 RMK AO2 P0002 LTG DSNT NE AND E
KW43 242235Z AUTO 25007KT 10SM SCT015 SCT035 SCT060 16/13 A3006 RMK AO2 P0001 LTG DSNT NE AND SE
KW43 242215Z AUTO 24006KT 10SM -RA SCT014 BKN031 OVC070 16/13 A3007 RMK AO2 P0001
KW43 242155Z AUTO 21007KT 10SM SCT013 BKN019 OVC026 16/13 A3007 RMK AO2 P0003 LTG DSNT E
KW43 242135Z AUTO 22009KT 10SM SCT009 OVC016 16/13 A3007 RMK AO2 P0002 LTG DSNT SE
KW43 242115Z AUTO 21010KT 10SM SCT009 BKN016 BKN036 16/13 A3007 RMK AO2 P0001 LTG DSNT SE
KW43 242055Z AUTO 22009KT 10SM SCT017 BKN022 OVC070 15/12 A3007 RMK AO2 P0002 LTG DSNT NE
KW43 242035Z AUTO 21009KT 10SM -RA BKN017 OVC021 13/12 A3008 RMK AO2 P0002 LTG DSNT NE
KW43 242015Z AUTO 22007KT 10SM BKN015 OVC021 13/11 A3008 RMK AO2 P0001 LTG DSNT NE AND E
KW43 241955Z AUTO 21009KT 10SM BKN017 OVC026 13/11 A3008 RMK AO2 P0004 LTG DSNT SW AND NW
KW43 241935Z AUTO 21009KT 10SM -RA SCT014 BKN023 OVC034 12/11 A3009 RMK AO2 P0003
KW43 241915Z AUTO 21008KT 10SM BKN016 OVC025 12/11 A3009 RMK AO2 P0002
KW43 241855Z AUTO 23009KT 10SM OVC014 12/11 A3009 RMK AO2 P0003 LTG DSNT NE SE AND SW
KW43 241835Z AUTO 23007KT 7SM -RA OVC011 12/11 A3009 RMK AO2 P0002
KW43 241815Z AUTO 22007KT 10SM -RA OVC011 12/11 A3009 RMK AO2 P0001 LTG DSNT E
KW43 241755Z AUTO 24005KT 7SM -RA OVC009 12/11 A3009 RMK AO2 P0005 LTG DSNT S
KW43 241735Z AUTO 23004KT 4SM +RA OVC009 12/11 A3008 RMK AO2 P0003 LTG DSNT S AND SW
KW43 241715Z AUTO 23006KT 10SM TS OVC007 12/11 A3008 RMK AO2 P0002 LTG DSNT S
KW43 241655Z AUTO 23004KT 10SM -TSDZ OVC005 12/11 A3008 RMK AO2 P0009 LTG DSNT S
KW43 241635Z AUTO 22007KT 5SM RA SCT005 BKN008 OVC019 12/11 A3007 RMK AO2 P0007 LTG DSNT SE AND SW
KW43 241615Z AUTO 23007KT 4SM RA SCT003 BKN009 OVC022 12/11 A3006 RMK AO2 P0005 LTG DSNT E AND SE
KW43 241555Z AUTO 23005KT 1SM +RA OVC009 12/11 A3006 RMK AO2 VIS 1/2V4 P0008 LTG DSNT SE AND NW
KW43 241535Z AUTO 24005KT 5SM +RA OVC011 12/11 A3005 RMK AO2 P0004 LTG DSNT S THRU NW
KW43 241515Z AUTO 26006KT 7SM +RA BKN009 OVC013 A3005 RMK AO2 P0001 LTG DSNT SW THRU N
KW43 241455Z AUTO 28005KT 10SM VCTS OVC009 A3005 RMK AO2 LTG DSNT S THRU NW
KW43 241435Z AUTO 25006KT 10SM SCT007 BKN011 OVC044 A3004 RMK AO2 LTG DSNT SW AND NW
KW43 241415Z AUTO 27007KT 7SM SCT008 SCT023 OVC047 12/11 A3003 RMK AO2 LTG DSNT S THRU N
KW43 241355Z AUTO 27007KT 10SM -RA BKN008 BKN023 OVC050 12/10 A3003 RMK AO2 LTG DSNT S THRU N
KW43 241335Z AUTO 26006KT 10SM OVC008 A3003 RMK AO2 LTG DSNT N
KW43 241315Z AUTO 00000KT 10SM OVC010 A3003 RMK AO2 LTG DSNT W AND NW
KW43 241255Z AUTO 25006KT 10SM OVC010 A3003 RMK AO2
KW43 241235Z AUTO 25006KT 10SM TS BKN012 BKN027 OVC037 A3002 RMK AO2 LTG DSNT NE SW AND NW
KW43 241215Z AUTO 22010G17KT 10SM BKN012 OVC027 A3001 RMK AO2 LTG DSNT NE AND SW
KW43 241155Z AUTO 24007KT 10SM BKN012 OVC032 A3001 RMK AO2 LTG DSNT N
KW43 241135Z AUTO 24006KT 10SM SCT010 OVC034 A3001 RMK AO2 LTG DSNT SW
KW43 241115Z AUTO 25009KT 10SM SCT010 SCT025 OVC034 A3000 RMK AO2 LTG DSNT S AND SW
KW43 241055Z AUTO 27008G15KT 10SM -RA BKN036 OVC045 A2999 RMK AO2
KW43 241035Z AUTO 26009KT 10SM SCT009 BKN033 OVC046 A2999 RMK AO2 LTG DSNT N AND SW
KW43 241015Z AUTO 27007KT 10SM SCT011 BKN025 OVC075 A2999 RMK AO2
KW43 240955Z AUTO 22004KT 10SM SCT027 SCT037 OVC075 A2999 RMK AO2 LTG DSNT W THRU N
KW43 240935Z AUTO 23007KT 10SM SCT029 BKN075 OVC120 A2998 RMK AO2 LTG DSNT N AND NW
KW43 240915Z AUTO 24006KT 10SM SCT027 BKN075 OVC120 A2997 RMK AO2
KW43 240855Z AUTO 23007KT 10SM SCT060 BKN075 OVC110 A2997 RMK AO2 LTG DSNT N
KW43 240835Z AUTO 25009KT 10SM SCT041 SCT075 OVC110 A2997 RMK AO2 LTG DSNT N
KW43 240815Z AUTO 25009KT 10SM SCT041 SCT065 BKN110 A2996 RMK AO2
KW43 240755Z AUTO 24006KT 10SM SCT039 BKN065 OVC110 A2995 RMK AO2
KW43 240735Z AUTO 20006KT 10SM SCT055 OVC110 A2995 RMK AO2 LTG DSNT N AND W
KW43 240715Z AUTO 21005KT 10SM VCTS SCT055 BKN090 OVC100 A2994 RMK AO2 LTG DSNT N AND NW
KW43 240655Z AUTO 22005KT 10SM BKN046 BKN055 OVC090 A2994 RMK AO2 LTG DSNT NW
KW43 240635Z AUTO 22004KT 10SM SCT035 BKN048 BKN065 A2995 RMK AO2 LTG DSNT W THRU N
KW43 240615Z AUTO 19003KT 10SM SCT041 SCT050 BKN065 A2994 RMK AO2
KW43 240555Z AUTO 20004KT 10SM SCT050 BKN065 BKN075 A2995 RMK AO2 LTG DSNT W AND NW
KW43 240535Z AUTO 00000KT 10SM SCT065 A2994 RMK AO2
KW43 240515Z AUTO 11003KT 10SM CLR A2993 RMK AO2
KW43 240455Z AUTO 03005KT 10SM CLR A2992 RMK AO2 LTG DSNT NW
KW43 240435Z AUTO 00000KT 10SM CLR A2993 RMK AO2
KW43 240415Z AUTO 00000KT 10SM CLR A2993 RMK AO2 LTG DSNT S
KW43 240355Z AUTO 00000KT 10SM CLR A2993 RMK AO2
KW43 240335Z AUTO 00000KT 10SM CLR A2992 RMK AO2
KW43 240315Z AUTO 00000KT 10SM VCTS SCT065 SCT080 A2992 RMK AO2 LTG DSNT S AND NW
KW43 240255Z AUTO 35003KT 10SM SCT065 SCT080 A2991 RMK AO2 LTG DSNT S
KW43 240235Z AUTO 33004KT 10SM TS CLR A2990 RMK AO2 LTG DSNT S
KW43 240215Z AUTO 01004KT 10SM SCT065 A2990 RMK AO2 LTG DSNT S AND SW
KW43 240155Z AUTO 34004KT 10SM SCT065 A2990 RMK AO2 LTG DSNT SW
KW43 240135Z AUTO 34004KT 10SM VCTS SCT055 SCT065 A2990 RMK AO2 LTG DSNT SW
KW43 240115Z AUTO 33007KT 10SM BKN055 BKN065 A2990 RMK AO2 LTG DSNT SW AND W
KW43 240055Z AUTO 34006KT 10SM TS SCT055 BKN065 A2990 RMK AO2 LTG DSNT SW AND W
KW43 240035Z AUTO 33004KT 10SM SCT065 BKN075 A2988 RMK AO2 LTG DSNT SW
KW43 240015Z AUTO 32004KT 10SM BKN065 BKN075 A2987 RMK AO2 LTG DSNT SW AND W
KW43 232355Z AUTO 34007KT 10SM SCT055 SCT070 A2986 RMK AO2 LTG DSNT W AND NW